Time;durP1;ratioP1;P1;durP2;ratioP2;P2;SDS_P1;SDS_P2;PMS_P1;PMS_P2;Temp;Humidity;BMP_temperature;BMP_pressure;BME280_temperature;BME280_humidity;BME280_pressure;Samples;Min_cycle;Max_cycle;Signal;HPM_P1;HPM_P2
2024/01/06 00:02:27;;;;;;;37.80;21.23;;;;;;;-144.30;92.23;86418.38;5071067;28;20743;-58
2024/01/06 00:04:54;;;;;;;39.83;24.70;;;;;;;-144.30;92.01;86442.25;5071163;28;20199;-57
2024/01/06 00:07:21;;;;;;;47.93;28.73;;;;;;;-144.30;91.77;86446.22;5071073;28;20208;-58
2024/01/06 00:09:48;;;;;;;87.40;42.37;;;;;;;-144.30;91.41;86462.13;5071163;28;20739;-57
2024/01/06 00:12:15;;;;;;;89.50;46.83;;;;;;;-144.30;91.30;86452.19;5070720;28;20221;-58
2024/01/06 00:14:45;;;;;;;105.53;53.00;;;;;;;-144.30;91.43;86426.34;5071014;28;20214;-58
2024/01/06 00:17:11;;;;;;;109.23;55.27;;;;;;;-144.30;91.95;86404.47;5070595;28;20311;-57
2024/01/06 00:19:40;;;;;;;118.00;60.80;;;;;;;-144.30;91.70;86438.28;5070873;28;20283;-58
2024/01/06 00:22:07;;;;;;;130.30;67.73;;;;;;;-144.30;92.28;86454.19;5070672;28;20592;-58
2024/01/06 00:24:33;;;;;;;133.83;69.27;;;;;;;-144.30;91.82;86398.50;5070556;28;20207;-57
2024/01/06 00:27:00;;;;;;;148.20;76.07;;;;;;;-144.30;91.45;86434.28;5070645;28;20235;-58
2024/01/06 00:29:27;;;;;;;143.37;75.13;;;;;;;-144.30;91.26;86458.16;5070664;28;20199;-58
2024/01/06 00:31:54;;;;;;;148.77;73.87;;;;;;;-144.30;91.42;86436.28;5070632;28;20200;-58
2024/01/06 00:34:21;;;;;;;139.27;74.03;;;;;;;-144.30;91.63;86456.16;5070684;28;20200;-57
2024/01/06 00:36:49;;;;;;;152.47;73.87;;;;;;;-144.30;91.11;86408.44;5070586;28;20294;-58
2024/01/06 00:39:16;;;;;;;155.37;74.80;;;;;;;-144.30;91.30;86410.44;5070429;28;20196;-58
2024/01/06 00:41:43;;;;;;;156.23;79.50;;;;;;;-144.30;90.90;86460.16;5070539;28;20195;-57
2024/01/06 00:44:10;;;;;;;157.40;76.80;;;;;;;-144.30;91.36;86418.38;5070289;28;20198;-58
2024/01/06 00:46:37;;;;;;;151.67;77.27;;;;;;;-144.30;90.74;86424.34;5070318;28;20202;-58
2024/01/06 00:49:03;;;;;;;144.53;74.87;;;;;;;-144.30;90.66;86454.19;5070436;28;20195;-58
2024/01/06 00:51:30;;;;;;;146.70;73.90;;;;;;;-144.30;90.39;86422.38;5070093;28;20199;-58
2024/01/06 00:53:59;;;;;;;141.20;75.40;;;;;;;-144.30;90.24;86470.09;5070127;28;20200;-58
2024/01/06 00:56:27;;;;;;;146.40;73.90;;;;;;;-144.30;89.82;86430.31;5069713;28;20241;-57
2024/01/06 00:58:54;;;;;;;145.37;72.20;;;;;;;-144.30;89.53;86402.47;5069906;28;20203;-58
2024/01/06 01:01:21;;;;;;;149.00;75.63;;;;;;;-144.30;88.88;86378.63;5069902;28;20223;-58
2024/01/06 01:03:47;;;;;;;141.70;69.10;;;;;;;-144.30;89.47;86424.34;5070069;28;20706;-58
2024/01/06 01:06:14;;;;;;;135.43;69.97;;;;;;;-144.30;89.28;86251.34;5070021;28;20230;-59
2024/01/06 01:08:41;;;;;;;126.50;63.43;;;;;;;-144.30;89.64;86456.16;5070322;28;20596;-58
2024/01/06 01:11:10;;;;;;;121.87;58.97;;;;;;;-144.30;89.75;86396.50;5070224;28;20208;-58
2024/01/06 01:13:36;;;;;;;109.63;54.93;;;;;;;-144.30;89.79;86450.19;5070078;28;20290;-58
2024/01/06 01:16:04;;;;;;;106.70;55.40;;;;;;;-144.30;90.19;86412.41;5069958;28;20219;-57
2024/01/06 01:18:30;;;;;;;108.07;54.63;;;;;;;-144.30;89.74;86422.38;5069959;28;20683;-57
2024/01/06 01:20:57;;;;;;;108.63;54.63;;;;;;;-144.30;89.42;86422.38;5069723;28;20283;-57
2024/01/06 01:23:24;;;;;;;112.63;53.87;;;;;;;-144.30;89.98;86404.47;5069831;28;20200;-58
2024/01/06 01:25:51;;;;;;;113.70;54.27;;;;;;;-144.30;89.88;86446.22;5069839;28;20188;-57
2024/01/06 01:28:19;;;;;;;101.40;52.37;;;;;;;-144.30;89.39;86418.38;5069835;28;20673;-58
2024/01/06 01:30:46;;;;;;;106.03;52.67;;;;;;;-144.30;89.59;86408.44;5069839;28;20683;-58
2024/01/06 01:33:13;;;;;;;111.00;54.33;;;;;;;-144.30;88.89;86414.41;5069832;28;20196;-58
2024/01/06 01:35:40;;;;;;;97.50;53.87;;;;;;;-144.30;89.12;86887.72;5069586;28;20290;-58
2024/01/06 01:38:08;;;;;;;109.93;54.57;;;;;;;-144.30;89.49;86390.53;5069537;28;20204;-58
2024/01/06 01:40:35;;;;;;;113.67;57.53;;;;;;;-144.30;90.29;86404.47;5069963;28;20206;-57
2024/01/06 01:43:02;;;;;;;108.73;54.57;;;;;;;-144.30;89.81;86390.53;5069802;28;20200;-58
2024/01/06 01:45:30;;;;;;;102.00;54.80;;;;;;;-144.30;90.92;86432.31;5069624;28;20202;-58
2024/01/06 01:47:57;;;;;;;101.03;52.20;;;;;;;-144.30;91.74;86430.31;5069932;28;20204;-58
2024/01/06 01:50:27;;;;;;;100.13;51.90;;;;;;;-144.30;91.98;86438.28;5069656;28;20200;-57
2024/01/06 01:52:55;;;;;;;92.80;45.93;;;;;;;-144.30;91.87;86386.56;5069787;28;20208;-57
2024/01/06 01:55:22;;;;;;;66.80;37.77;;;;;;;-144.30;91.70;86406.44;5069575;28;20210;-58
2024/01/06 01:57:49;;;;;;;65.70;34.67;;;;;;;-144.30;92.15;86406.44;5069620;28;20227;-57
2024/01/06 02:00:16;;;;;;;53.83;30.20;;;;;;;-144.30;92.39;86426.34;5069418;28;20206;-58
2024/01/06 02:02:45;;;;;;;54.97;28.87;;;;;;;-144.30;92.52;86420.38;5069453;28;20566;-59
2024/01/06 02:05:11;;;;;;;49.13;28.63;;;;;;;-144.30;92.69;86410.44;5069617;28;20200;-58
2024/01/06 02:07:38;;;;;;;49.57;27.50;;;;;;;-144.30;92.21;86440.25;5069383;28;20676;-57
2024/01/06 02:10:07;;;;;;;49.97;26.60;;;;;;;-144.30;92.21;86426.34;5073479;28;20199;-58
2024/01/06 02:12:33;;;;;;;44.17;23.70;;;;;;;-144.30;91.89;86446.22;5073446;28;20700;-58
2024/01/06 02:15:00;;;;;;;37.87;21.67;;;;;;;-144.30;92.33;86450.19;5073458;28;20592;-58
2024/01/06 02:17:27;;;;;;;44.77;21.20;;;;;;;-144.30;91.90;86454.19;5073163;28;20315;-57
2024/01/06 02:19:56;;;;;;;42.13;21.00;;;;;;;-144.30;92.37;86452.19;5073198;28;20196;-57
2024/01/06 02:22:24;;;;;;;37.07;20.27;;;;;;;-144.30;92.71;86497.94;5073322;28;20196;-58
2024/01/06 02:24:51;;;;;;;34.50;19.87;;;;;;;-144.30;93.72;86434.28;5073303;28;20200;-56
2024/01/06 02:27:18;;;;;;;36.63;19.00;;;;;;;-144.30;93.49;86432.31;5072841;28;20192;-57
2024/01/06 02:29:45;;;;;;;36.90;19.23;;;;;;;-144.30;94.46;86489.97;5073164;28;20198;-58
2024/01/06 02:32:12;;;;;;;40.23;20.50;;;;;;;-144.30;93.62;86517.81;5073237;28;20668;-58
2024/01/06 02:34:39;;;;;;;34.20;18.83;;;;;;;-144.30;93.73;86474.06;5073168;28;20645;-58
2024/01/06 02:37:06;;;;;;;33.13;18.90;;;;;;;-144.30;93.83;86521.78;5072890;28;20271;-57
2024/01/06 02:39:34;;;;;;;33.50;18.50;;;;;;;-144.30;94.31;86474.06;5072811;28;20287;-58
2024/01/06 02:42:01;;;;;;;38.40;20.87;;;;;;;-144.30;94.43;86511.84;5072932;28;20279;-58
2024/01/06 02:44:28;;;;;;;33.63;18.80;;;;;;;-144.30;93.52;86493.94;5072279;28;20202;-57
2024/01/06 02:46:55;;;;;;;34.83;18.80;;;;;;;-144.30;93.76;86480.03;5072930;28;20188;-58
2024/01/06 02:49:22;;;;;;;34.87;18.73;;;;;;;-144.30;93.64;86448.22;5072613;28;20195;-58
2024/01/06 02:51:49;;;;;;;32.47;17.40;;;;;;;-144.30;93.96;86468.09;5072803;28;20574;-57
2024/01/06 02:54:15;;;;;;;32.10;17.50;;;;;;;-144.30;93.58;86482.03;5072698;28;20206;-57
2024/01/06 02:56:44;;;;;;;30.23;17.33;;;;;;;-144.30;93.75;86474.06;5072639;28;20224;-57
2024/01/06 02:59:11;;;;;;;30.73;18.47;;;;;;;-144.30;93.71;86478.03;5072846;28;20612;-58
2024/01/06 03:01:38;;;;;;;32.00;18.53;;;;;;;-144.30;93.54;86503.91;5072273;28;20235;-59
2024/01/06 03:04:05;;;;;;;29.97;17.73;;;;;;;-144.30;92.74;86486.00;5072449;28;20227;-57
2024/01/06 03:06:32;;;;;;;32.57;18.43;;;;;;;-144.30;92.62;86486.00;5072599;28;20263;-58
2024/01/06 03:08:58;;;;;;;38.03;18.93;;;;;;;-144.30;92.51;86493.94;5072467;28;20583;-58
2024/01/06 03:11:25;;;;;;;31.80;17.67;;;;;;;-144.30;92.51;86332.88;5072201;28;20204;-57
2024/01/06 03:13:54;;;;;;;33.43;18.57;;;;;;;-144.30;93.37;86511.84;5072280;28;20286;-58
2024/01/06 03:16:21;;;;;;;33.57;17.90;;;;;;;-144.30;93.15;86521.78;5072198;28;20219;-58
2024/01/06 03:18:48;;;;;;;32.87;18.20;;;;;;;-144.30;93.28;86491.97;5072182;28;20192;-57
2024/01/06 03:21:18;;;;;;;31.30;18.07;;;;;;;-144.30;93.75;86472.06;5071058;28;20249;-57
2024/01/06 03:23:45;;;;;;;30.60;18.20;;;;;;;-144.30;93.81;86482.03;5072131;28;20667;-58
2024/01/06 03:26:12;;;;;;;30.57;17.97;;;;;;;-144.30;93.37;86501.91;5071998;28;20592;-58
2024/01/06 03:28:39;;;;;;;31.03;17.17;;;;;;;-144.30;93.29;86497.94;5072263;28;20584;-57
2024/01/06 03:31:07;;;;;;;32.60;17.23;;;;;;;-144.30;93.31;86486.00;5072286;28;20196;-57
2024/01/06 03:33:34;;;;;;;30.70;17.60;;;;;;;-144.30;94.19;86505.88;5072173;28;20666;-58
2024/01/06 03:36:06;;;;;;;25.97;16.37;;;;;;;-144.30;93.55;86505.88;5071995;28;20203;-57
2024/01/06 03:38:33;;;;;;;31.30;17.37;;;;;;;-144.30;93.32;86468.09;5071767;28;20204;-58
2024/01/06 03:41:00;;;;;;;29.53;17.33;;;;;;;-144.30;93.14;86376.63;5071593;28;20192;-58
2024/01/06 03:43:27;;;;;;;29.53;15.77;;;;;;;-144.30;93.49;86505.88;5071641;28;20200;-58
2024/01/06 03:45:55;;;;;;;29.13;16.93;;;;;;;-144.30;93.80;86478.03;5071616;28;20204;-57
2024/01/06 03:48:23;;;;;;;32.47;17.50;;;;;;;-144.30;93.99;86493.94;5071617;28;20192;-58
2024/01/06 03:50:50;;;;;;;32.47;17.30;;;;;;;-144.30;93.13;86452.19;5071777;28;20621;-58
2024/01/06 03:53:17;;;;;;;27.17;16.77;;;;;;;-144.30;92.56;86486.00;5071404;28;20196;-57
2024/01/06 03:55:44;;;;;;;25.17;16.37;;;;;;;-144.30;92.49;86482.03;5071736;28;20206;-58
2024/01/06 03:58:11;;;;;;;29.73;16.40;;;;;;;-144.30;92.41;86517.81;5067762;28;20212;-57
2024/01/06 04:00:38;;;;;;;31.20;17.30;;;;;;;-144.30;92.19;86484.00;5051360;28;20261;-57
2024/01/06 04:03:06;;;;;;;29.57;17.73;;;;;;;-144.30;92.33;86450.19;5051515;28;20192;-58
2024/01/06 04:05:34;;;;;;;28.53;16.70;;;;;;;-144.30;92.18;86515.81;5051200;28;20254;-58
2024/01/06 04:08:01;;;;;;;29.87;16.90;;;;;;;-144.30;91.77;86523.78;5051207;28;20188;-58
2024/01/06 04:10:28;;;;;;;28.70;17.87;;;;;;;-144.30;91.82;86468.09;5051294;28;20200;-57
2024/01/06 04:12:55;;;;;;;30.57;18.07;;;;;;;-144.30;92.29;86489.97;5051146;28;20203;-58
2024/01/06 04:15:22;;;;;;;31.90;18.53;;;;;;;-144.30;92.22;86501.91;5050835;28;20197;-57
2024/01/06 04:17:50;;;;;;;29.00;18.73;;;;;;;-144.30;92.45;86484.00;5051025;28;20226;-57
2024/01/06 04:20:17;;;;;;;31.77;19.20;;;;;;;-144.30;92.51;86499.91;5050886;28;20203;-58
2024/01/06 04:22:45;;;;;;;34.50;18.77;;;;;;;-144.30;92.59;86476.06;5051335;28;20196;-57
2024/01/06 04:25:12;;;;;;;34.97;19.90;;;;;;;-144.30;92.68;86531.72;5050721;28;20201;-57
2024/01/06 04:27:39;;;;;;;32.90;18.23;;;;;;;-144.30;92.79;86517.81;5051029;28;20275;-57
2024/01/06 04:30:07;;;;;;;31.03;17.27;;;;;;;-144.30;92.28;86553.59;5050985;28;20198;-57
2024/01/06 04:32:34;;;;;;;28.10;16.87;;;;;;;-144.30;91.91;86478.03;5050660;28;20200;-57
2024/01/06 04:35:01;;;;;;;32.63;17.10;;;;;;;-144.30;90.94;86489.97;5050687;28;20197;-58
2024/01/06 04:37:27;;;;;;;29.10;17.83;;;;;;;-144.30;91.98;86509.84;5050497;28;20265;-57
2024/01/06 04:39:56;;;;;;;32.93;17.57;;;;;;;-144.30;92.08;86521.78;5050608;28;20201;-58
2024/01/06 04:42:23;;;;;;;27.57;17.03;;;;;;;-144.30;92.60;86519.81;5050556;28;20193;-58
2024/01/06 04:44:50;;;;;;;28.23;16.87;;;;;;;-144.30;92.98;86515.81;5050747;28;20200;-58
2024/01/06 04:47:17;;;;;;;32.43;16.47;;;;;;;-144.30;92.51;86513.84;5050334;28;20192;-57
2024/01/06 04:49:44;;;;;;;26.57;15.77;;;;;;;-144.30;92.47;86539.69;5050642;28;20204;-58
2024/01/06 04:52:11;;;;;;;22.70;13.93;;;;;;;-144.30;92.11;86374.63;5050448;28;20204;-57
2024/01/06 04:54:38;;;;;;;22.53;14.63;;;;;;;-144.30;91.83;86454.19;5051136;28;20247;-58
2024/01/06 04:57:07;;;;;;;22.37;13.67;;;;;;;-144.30;91.59;86513.84;5050339;28;20224;-58
2024/01/06 04:59:34;;;;;;;24.73;14.03;;;;;;;-144.30;92.16;86470.09;5050865;28;20196;-58
2024/01/06 05:02:01;;;;;;;19.00;13.13;;;;;;;-144.30;93.09;86499.91;5049926;28;20615;-58
2024/01/06 05:04:28;;;;;;;21.90;14.57;;;;;;;-144.30;93.00;86895.66;5050388;28;20588;-58
2024/01/06 05:06:55;;;;;;;19.73;13.27;;;;;;;-144.30;92.67;87693.28;5050022;28;20189;-58
2024/01/06 05:09:22;;;;;;;16.93;13.03;;;;;;;-144.30;92.84;86501.91;5050112;28;20193;-58
2024/01/06 05:11:49;;;;;;;19.47;13.17;;;;;;;-144.30;93.10;86553.59;5050129;28;20207;-58
2024/01/06 05:14:17;;;;;;;18.67;13.33;;;;;;;-144.30;92.85;86497.94;5050063;28;20200;-57
2024/01/06 05:16:44;;;;;;;26.80;15.03;;;;;;;-144.30;92.14;86487.97;5050327;28;20691;-57
2024/01/06 05:19:11;;;;;;;26.30;14.80;;;;;;;-144.30;92.31;86501.91;5050431;28;20598;-58
2024/01/06 05:21:38;;;;;;;28.10;14.67;;;;;;;-144.30;91.56;86509.84;5050171;28;21019;-56
2024/01/06 05:24:05;;;;;;;28.27;15.77;;;;;;;-144.30;91.90;86517.81;5049888;28;20205;-58
2024/01/06 05:26:32;;;;;;;24.83;16.83;;;;;;;-144.30;91.90;86509.84;5049903;28;20202;-58
2024/01/06 05:28:59;;;;;;;31.93;17.20;;;;;;;-144.30;91.41;86533.72;5049778;28;20196;-57
2024/01/06 05:31:27;;;;;;;23.27;16.70;;;;;;;-144.30;90.83;86466.09;5050088;28;20285;-58
2024/01/06 05:33:54;;;;;;;23.53;16.17;;;;;;;-144.30;91.99;86474.06;5050129;28;20583;-57
2024/01/06 05:36:21;;;;;;;27.03;15.90;;;;;;;-144.30;91.78;86503.91;5049800;28;20200;-57
2024/01/06 05:38:48;;;;;;;25.47;16.50;;;;;;;-144.30;91.40;86501.91;5050045;28;20221;-58
2024/01/06 05:41:15;;;;;;;23.47;15.07;;;;;;;-144.30;91.45;86486.00;5050440;28;20511;-58
2024/01/06 05:43:42;;;;;;;26.03;15.20;;;;;;;-144.30;91.65;86507.88;5061807;28;20288;-58
2024/01/06 05:46:10;;;;;;;23.90;15.60;;;;;;;-144.30;92.31;86537.69;5066107;28;20695;-57
2024/01/06 05:48:40;;;;;;;26.47;15.53;;;;;;;-144.30;92.38;86505.88;5057271;28;20246;-57
2024/01/06 05:51:07;;;;;;;24.43;14.80;;;;;;;-144.30;93.11;86543.66;5073674;28;20718;-58
2024/01/06 05:53:34;;;;;;;26.13;15.60;;;;;;;-144.30;93.27;86545.66;5071591;28;20192;-57
2024/01/06 05:56:01;;;;;;;25.57;14.67;;;;;;;-144.30;92.96;86460.16;5072218;28;20199;-58
2024/01/06 05:58:28;;;;;;;21.77;15.13;;;;;;;-144.30;93.25;86507.88;5073264;28;20305;-58
2024/01/06 06:00:55;;;;;;;24.63;14.50;;;;;;;-144.30;93.00;86513.84;5073005;28;20238;-58
2024/01/06 06:03:22;;;;;;;25.17;14.90;;;;;;;-144.30;92.74;86513.84;5073045;28;20191;-58
2024/01/06 06:05:50;;;;;;;26.07;15.23;;;;;;;-144.30;92.90;86513.84;5073627;28;20192;-57
2024/01/06 06:08:17;;;;;;;26.17;15.00;;;;;;;-144.30;92.62;86521.78;5073044;28;20196;-58
2024/01/06 06:10:59;;;;;;;23.13;14.53;;;;;;;-144.30;92.08;86513.84;5072684;28;20311;-58
2024/01/06 06:13:26;;;;;;;25.13;15.13;;;;;;;-144.30;91.26;86517.81;5060594;28;20200;-57
2024/01/06 06:15:53;;;;;;;26.87;14.57;;;;;;;-144.30;91.43;86460.16;5065550;28;20199;-58
2024/01/06 06:18:20;;;;;;;23.27;15.07;;;;;;;-144.30;90.90;86486.00;5086727;28;20547;-57
2024/01/06 06:20:47;;;;;;;23.60;15.07;;;;;;;-144.30;91.24;86525.75;5071919;28;20603;-58
2024/01/06 06:23:16;;;;;;;24.80;16.00;;;;;;;-144.30;91.83;86505.88;5073306;28;20222;-58
2024/01/06 06:25:42;;;;;;;30.37;17.53;;;;;;;-144.30;91.87;86519.81;5073571;28;20287;-58
2024/01/06 06:28:09;;;;;;;27.07;17.33;;;;;;;-144.30;91.67;86507.88;5073348;28;20584;-58
2024/01/06 06:30:36;;;;;;;27.17;14.97;;;;;;;-144.30;91.50;86464.13;5073338;28;20622;-58
2024/01/06 06:33:03;;;;;;;26.00;15.50;;;;;;;-144.30;91.58;86545.66;5073206;28;20196;-58
2024/01/06 06:35:30;;;;;;;28.33;16.27;;;;;;;-144.30;91.62;86482.03;5073104;28;20192;-58
2024/01/06 06:37:57;;;;;;;27.77;16.17;;;;;;;-144.30;92.03;86478.03;5072910;28;20226;-58
2024/01/06 06:40:26;;;;;;;30.53;19.50;;;;;;;-144.30;91.96;86505.88;5072933;28;20202;-58
2024/01/06 06:42:53;;;;;;;31.13;20.90;;;;;;;-144.30;91.65;86487.97;5073144;28;20686;-57
2024/01/06 06:45:22;;;;;;;31.80;21.23;;;;;;;-144.30;91.00;86523.78;5072850;28;20196;-58
2024/01/06 06:47:50;;;;;;;30.20;21.30;;;;;;;-144.30;90.90;86513.84;5072824;28;20283;-57
2024/01/06 06:50:17;;;;;;;32.17;21.97;;;;;;;-144.30;90.59;86503.91;5072758;28;20195;-58
2024/01/06 06:52:44;;;;;;;33.63;21.10;;;;;;;-144.30;90.39;86462.13;5072794;28;20200;-58
2024/01/06 06:55:10;;;;;;;27.73;18.80;;;;;;;-144.30;89.56;86470.09;5072575;28;20206;-58
2024/01/06 06:57:39;;;;;;;32.17;19.10;;;;;;;-144.30;89.68;86466.09;5072486;28;20216;-57
2024/01/06 07:00:08;;;;;;;31.13;19.80;;;;;;;-144.30;89.68;86509.84;5072760;28;20273;-58
2024/01/06 07:02:35;;;;;;;35.43;19.77;;;;;;;-144.30;89.49;86478.03;5072125;28;20283;-58
2024/01/06 07:05:02;;;;;;;36.40;20.53;;;;;;;-144.30;89.10;86458.16;5071825;28;20198;-59
2024/01/06 07:07:29;;;;;;;49.93;24.43;;;;;;;-144.30;88.74;86414.41;5071930;28;20297;-57
2024/01/06 07:09:55;;;;;;;42.80;26.37;;;;;;;-144.30;89.45;86480.03;5070652;28;20763;-57
2024/01/06 07:12:22;;;;;;;66.23;32.93;;;;;;;-144.30;89.33;86474.06;5071702;28;20698;-57
2024/01/06 07:14:51;;;;;;;57.97;31.23;;;;;;;-144.30;89.35;86476.06;5072540;28;20198;-58
2024/01/06 07:17:18;;;;;;;53.87;31.00;;;;;;;-144.30;89.01;86438.28;5065759;28;20580;-58
2024/01/06 07:19:44;;;;;;;48.37;26.60;;;;;;;-144.30;88.92;86478.03;5072129;28;20204;-58
2024/01/06 07:22:12;;;;;;;39.83;24.97;;;;;;;-144.30;89.04;86450.19;5070083;28;20247;-58
2024/01/06 07:24:38;;;;;;;47.50;24.93;;;;;;;-144.30;88.93;86446.22;5059807;28;20676;-58
2024/01/06 07:27:05;;;;;;;48.63;24.13;;;;;;;-144.30;88.73;86462.13;5063395;28;20618;-57
2024/01/06 07:29:32;;;;;;;41.60;23.90;;;;;;;-144.30;88.46;86426.34;5059245;28;20196;-57
2024/01/06 07:32:00;;;;;;;41.67;23.50;;;;;;;-144.30;88.55;86476.06;5066938;28;20204;-58
2024/01/06 07:34:27;;;;;;;43.67;23.40;;;;;;;-144.30;88.21;86456.16;5071867;28;20198;-58
2024/01/06 07:36:54;;;;;;;46.93;23.57;;;;;;;-144.30;88.48;86420.38;5071910;28;20203;-58
2024/01/06 07:39:21;;;;;;;38.53;21.63;;;;;;;-144.30;88.13;86462.13;5071951;28;20219;-57
2024/01/06 07:41:48;;;;;;;39.73;22.13;;;;;;;-144.30;88.67;86454.19;5071815;28;20248;-57
2024/01/06 07:44:15;;;;;;;37.70;20.10;;;;;;;-144.30;88.42;86464.13;5071732;28;20206;-57
2024/01/06 07:46:43;;;;;;;35.87;19.70;;;;;;;-144.30;88.22;86410.44;5071006;28;20212;-57
2024/01/06 07:49:11;;;;;;;34.03;19.47;;;;;;;-144.30;87.94;86438.28;5071461;28;20192;-58
2024/01/06 07:51:38;;;;;;;38.40;21.67;;;;;;;-144.30;88.09;86501.91;5071580;28;20196;-57
2024/01/06 07:54:08;;;;;;;37.33;21.37;;;;;;;-144.30;88.06;86438.28;5071709;28;20698;-57
2024/01/06 07:56:35;;;;;;;45.83;22.00;;;;;;;-144.30;87.81;86472.06;5071619;28;20187;-57
2024/01/06 07:59:02;;;;;;;46.27;23.07;;;;;;;-144.30;87.46;86430.31;5071119;28;20839;-57
2024/01/06 08:01:29;;;;;;;37.57;20.77;;;;;;;-144.30;87.42;86446.22;5070487;28;20219;-57
2024/01/06 08:03:56;;;;;;;35.00;21.87;;;;;;;-144.30;86.90;86406.44;5079932;28;20210;-57
2024/01/06 08:06:25;;;;;;;34.53;21.40;;;;;;;-144.30;86.36;86432.31;5090825;28;20260;-58
2024/01/06 08:08:52;;;;;;;34.10;20.80;;;;;;;-144.30;86.21;86462.13;5091822;28;20312;-58
2024/01/06 08:11:19;;;;;;;38.70;22.73;;;;;;;-144.30;85.85;86436.28;5090577;28;20213;-58
2024/01/06 08:13:45;;;;;;;34.83;20.87;;;;;;;-144.30;85.94;86398.50;5091641;28;20698;-57
2024/01/06 08:16:12;;;;;;;39.63;22.47;;;;;;;-144.30;86.25;86408.44;5091733;28;20598;-58
2024/01/06 08:18:39;;;;;;;35.20;21.77;;;;;;;-144.30;86.77;86424.34;5091357;28;20609;-57
2024/01/06 08:21:06;;;;;;;36.00;20.23;;;;;;;-144.30;86.63;86394.53;5091575;28;20195;-57
2024/01/06 08:23:34;;;;;;;36.83;21.00;;;;;;;-144.30;85.30;86400.50;5091499;28;20217;-59
2024/01/06 08:26:02;;;;;;;38.47;20.53;;;;;;;-144.30;84.65;86372.66;5091267;28;20212;-57
2024/01/06 08:28:29;;;;;;;39.10;21.57;;;;;;;-144.30;83.54;86374.63;5091446;28;20662;-58
2024/01/06 08:30:56;;;;;;;35.73;21.17;;;;;;;-144.30;83.03;86402.47;5091482;28;20201;-58
2024/01/06 08:33:22;;;;;;;32.47;20.63;;;;;;;-144.30;82.24;86370.66;5091142;28;20217;-58
2024/01/06 08:35:49;;;;;;;32.27;20.40;;;;;;;-144.30;81.48;86346.81;5091337;28;20195;-58
2024/01/06 08:38:16;;;;;;;35.53;22.17;;;;;;;-144.30;82.05;86318.97;5091042;28;20223;-58
2024/01/06 08:40:47;;;;;;;34.27;21.37;;;;;;;-144.30;82.11;86338.84;5091022;28;20277;-58
2024/01/06 08:43:15;;;;;;;42.73;24.63;;;;;;;-144.30;81.20;86324.94;5091344;28;20202;-57
2024/01/06 08:45:42;;;;;;;48.00;26.27;;;;;;;-144.30;80.60;86283.16;5090751;28;20206;-58
2024/01/06 08:48:09;;;;;;;51.80;27.53;;;;;;;-144.30;81.32;86322.94;5063642;28;20200;-58
2024/01/06 08:50:36;;;;;;;49.40;28.07;;;;;;;-144.30;79.84;86303.06;5062596;28;20274;-57
2024/01/06 08:53:02;;;;;;;42.70;26.57;;;;;;;-144.30;79.90;86239.44;5051708;28;20207;-58
2024/01/06 08:55:29;;;;;;;50.67;28.53;;;;;;;-144.30;79.92;86344.81;5065626;28;20203;-57
2024/01/06 08:57:57;;;;;;;50.43;30.00;;;;;;;-144.30;79.70;86309.03;5069967;28;20204;-58
2024/01/06 09:00:24;;;;;;;52.53;30.73;;;;;;;-144.30;79.17;86291.13;5063356;28;20255;-58
2024/01/06 09:02:51;;;;;;;46.53;28.23;;;;;;;-144.30;78.44;86231.47;5072778;28;20209;-58
2024/01/06 09:05:18;;;;;;;51.50;28.17;;;;;;;-144.30;78.35;86291.13;5090585;28;20196;-57
2024/01/06 09:07:49;;;;;;;46.83;28.47;;;;;;;-144.30;78.01;86354.75;5090409;28;20202;-58
2024/01/06 09:10:17;;;;;;;48.50;27.83;;;;;;;-144.30;78.11;86283.16;5090594;28;20218;-58
2024/01/06 09:12:44;;;;;;;47.43;27.27;;;;;;;-144.30;78.15;86191.69;5090395;28;20198;-58
2024/01/06 09:15:12;;;;;;;70.83;29.60;;;;;;;-144.30;78.04;86338.84;5090393;28;20221;-57
2024/01/06 09:17:40;;;;;;;89.00;32.00;;;;;;;-144.30;78.16;86215.56;5089576;28;20286;-58
2024/01/06 09:20:08;;;;;;;131.77;36.00;;;;;;;-144.30;78.32;86301.06;5090106;28;20234;-56
2024/01/06 09:22:34;;;;;;;75.37;33.13;;;;;;;-144.30;78.58;86303.06;5089994;28;20298;-58
2024/01/06 09:25:01;;;;;;;76.37;32.30;;;;;;;-144.30;78.38;86291.13;5090297;28;20195;-56
2024/01/06 09:27:28;;;;;;;64.33;30.73;;;;;;;-144.30;77.72;86334.88;5089860;28;20201;-57
2024/01/06 09:29:55;;;;;;;49.77;29.87;;;;;;;-144.30;77.79;86273.22;5090384;28;20191;-59
2024/01/06 09:32:23;;;;;;;52.03;30.93;;;;;;;-144.30;77.23;86219.53;5090078;28;20201;-59
2024/01/06 09:34:50;;;;;;;57.43;32.00;;;;;;;-144.30;77.60;86267.25;5090229;28;20282;-57
2024/01/06 09:37:17;;;;;;;60.97;33.40;;;;;;;-144.30;77.52;86324.94;5090020;28;20202;-58
2024/01/06 09:39:44;;;;;;;57.20;33.37;;;;;;;-144.30;77.64;86291.13;5090105;28;20582;-58
2024/01/06 09:42:11;;;;;;;61.77;35.13;;;;;;;-144.30;77.70;86263.28;5084462;28;21929;-59
2024/01/06 09:44:38;;;;;;;58.17;33.87;;;;;;;-144.30;77.93;86269.25;5062110;28;20204;-59
2024/01/06 09:47:06;;;;;;;65.47;36.57;;;;;;;-144.30;77.94;86301.06;5061917;28;20203;-59
2024/01/06 09:49:39;;;;;;;63.37;34.63;;;;;;;-144.30;77.29;86287.16;5050858;28;20600;-57
2024/01/06 09:52:16;;;;;;;53.40;32.73;;;;;;;-144.30;76.83;86173.81;5080446;28;20199;-58
2024/01/06 09:54:50;;;;;;;63.03;34.20;;;;;;;-144.30;76.22;86223.50;5090175;28;20191;-58
2024/01/06 09:57:17;;;;;;;62.13;34.53;;;;;;;-144.30;76.47;86253.34;5090612;28;20673;-59
2024/01/06 09:59:46;;;;;;;56.50;34.17;;;;;;;-144.30;76.55;86223.50;5089910;28;20221;-58
2024/01/06 10:02:16;;;;;;;56.83;35.23;;;;;;;-144.30;76.42;86275.22;5089828;28;20240;-58
2024/01/06 10:04:44;;;;;;;55.77;32.93;;;;;;;-144.30;75.00;86287.16;5090425;28;20195;-59
2024/01/06 10:07:13;;;;;;;60.53;32.20;;;;;;;-144.30;73.99;86279.19;5089803;28;20201;-58
2024/01/06 10:09:41;;;;;;;56.17;33.17;;;;;;;-144.30;73.68;86199.66;5089776;28;20686;-57
2024/01/06 10:12:09;;;;;;;62.87;33.20;;;;;;;-144.30;73.60;86257.31;5089781;28;20199;-58
2024/01/06 10:14:36;;;;;;;62.00;32.33;;;;;;;-144.30;73.72;86231.47;5089680;28;20203;-58
2024/01/06 10:17:03;;;;;;;49.67;28.60;;;;;;;-144.30;73.25;86227.50;5089858;28;20282;-57
2024/01/06 10:19:30;;;;;;;48.87;28.27;;;;;;;-144.30;72.63;86213.56;5074239;28;20294;-58
2024/01/06 10:22:01;;;;;;;55.10;27.43;;;;;;;-144.30;73.49;86207.59;5069703;28;20655;-57
2024/01/06 10:24:29;;;;;;;50.43;28.23;;;;;;;-144.30;73.80;86159.88;5069437;28;20200;-58
2024/01/06 10:26:56;;;;;;;111.97;32.47;;;;;;;-144.30;74.07;86203.63;5069639;28;20577;-57
2024/01/06 10:29:23;;;;;;;79.10;29.53;;;;;;;-144.30;73.51;86181.75;5070675;28;20192;-57
2024/01/06 10:31:50;;;;;;;62.47;27.93;;;;;;;-144.30;72.69;86171.81;5073090;28;20202;-57
2024/01/06 10:34:17;;;;;;;56.10;28.37;;;;;;;-144.30;73.31;86229.47;5072953;28;20206;-57
2024/01/06 10:36:45;;;;;;;49.27;25.93;;;;;;;-144.30;73.90;86239.44;5073141;28;20667;-57
2024/01/06 10:39:15;;;;;;;53.23;24.37;;;;;;;-144.30;73.48;86227.50;5070582;28;20255;-57
2024/01/06 10:41:44;;;;;;;40.23;24.33;;;;;;;-144.30;73.86;86201.66;5054813;28;20211;-57
2024/01/06 10:44:12;;;;;;;44.17;23.27;;;;;;;-144.30;74.07;86223.50;5052797;28;20197;-57
2024/01/06 10:46:40;;;;;;;40.87;23.93;;;;;;;-144.30;73.70;86199.66;5053127;28;20200;-58
2024/01/06 10:49:10;;;;;;;49.50;26.17;;;;;;;-144.30;73.47;86181.75;5052907;28;20196;-58
2024/01/06 10:51:38;;;;;;;53.53;27.43;;;;;;;-144.30;73.32;86227.50;5052862;28;20242;-57
2024/01/06 10:54:06;;;;;;;46.03;26.10;;;;;;;-144.30;73.99;86233.47;5052746;28;20201;-58
2024/01/06 10:56:39;;;;;;;54.37;26.80;;;;;;;-144.30;74.24;86215.56;5053006;28;20258;-57
2024/01/06 10:59:07;;;;;;;58.47;29.70;;;;;;;-144.30;74.94;86108.19;5052465;28;20224;-57
2024/01/06 11:01:35;;;;;;;58.30;27.47;;;;;;;-144.30;75.59;86155.91;5052521;28;20229;-58